Time;durP1;ratioP1;P1;durP2;ratioP2;P2;SDS_P1;SDS_P2;PMS_P1;PMS_P2;Temp;Humidity;BMP_temperature;BMP_pressure;BME280_temperature;BME280_humidity;BME280_pressure;Samples;Min_cycle;Max_cycle;Signal;HPM_P1;HPM_P2
2022/03/23 00:02:03;;;;;;;3.50;3.20;;;;;;;18.04;41.51;98583.94;4898652;29;20296;-81
2022/03/23 00:04:31;;;;;;;3.37;3.07;;;;;;;18.23;41.71;98618.09;4898675;29;20332;-81
2022/03/23 00:06:59;;;;;;;3.57;3.27;;;;;;;18.37;41.74;98630.88;4899215;29;20291;-81
2022/03/23 00:09:26;;;;;;;3.90;3.00;;;;;;;18.27;41.87;98618.38;4931612;29;20209;-81
2022/03/23 00:12:13;;;;;;;4.03;3.30;;;;;;;18.39;41.79;98636.94;4903996;29;20218;-81
2022/03/23 00:14:39;;;;;;;3.57;3.23;;;;;;;18.63;41.88;98671.47;4898666;29;20229;-81
2022/03/23 00:17:06;;;;;;;3.97;3.33;;;;;;;18.38;41.67;98629.22;4930650;29;20264;-81
2022/03/23 00:19:33;;;;;;;3.40;3.10;;;;;;;18.09;41.54;98582.53;4901997;29;20214;-81
2022/03/23 00:22:00;;;;;;;3.73;3.37;;;;;;;18.32;41.57;98619.50;4911057;29;20205;-81
2022/03/23 00:24:27;;;;;;;4.23;3.47;;;;;;;18.53;41.91;98650.47;4913584;29;20344;-81
2022/03/23 00:26:54;;;;;;;3.30;3.00;;;;;;;18.46;42.07;98643.25;4898366;29;20350;-81
2022/03/23 00:29:20;;;;;;;3.40;3.10;;;;;;;18.07;41.91;98576.50;4882584;29;20352;-81
2022/03/23 00:31:47;;;;;;;3.50;3.20;;;;;;;18.64;41.41;98672.34;4913903;29;20224;-81
2022/03/23 00:34:14;;;;;;;3.53;3.23;;;;;;;18.41;41.56;98632.81;4897453;29;20233;-81
2022/03/23 00:36:40;;;;;;;3.53;3.23;;;;;;;18.52;41.97;98648.72;4913802;29;20233;-81
2022/03/23 00:39:07;;;;;;;3.50;3.20;;;;;;;18.39;41.78;98621.69;4913721;29;20435;-81
2022/03/23 00:41:34;;;;;;;3.83;2.80;;;;;;;18.40;41.58;98625.06;4882456;29;20760;-81
2022/03/23 00:44:00;;;;;;;4.00;3.30;;;;;;;18.66;41.41;98669.13;4883738;29;20307;-81
2022/03/23 00:46:27;;;;;;;3.73;3.37;;;;;;;18.66;41.60;98674.22;4898447;29;20670;-81
2022/03/23 00:48:54;;;;;;;4.00;3.60;;;;;;;18.51;41.92;98652.06;4898291;29;20213;-81
2022/03/23 00:51:20;;;;;;;3.77;3.43;;;;;;;18.42;41.42;98634.59;4897748;29;20702;-81
2022/03/23 00:53:47;;;;;;;3.60;3.30;;;;;;;18.60;41.65;98665.31;4897533;29;20231;-81
2022/03/23 00:56:14;;;;;;;4.07;3.67;;;;;;;18.43;41.88;98636.34;4897692;29;20224;-81
2022/03/23 00:58:40;;;;;;;4.10;3.70;;;;;;;18.54;41.62;98655.66;4882238;29;20225;-81
2022/03/23 01:01:07;;;;;;;3.70;3.40;;;;;;;18.47;41.82;98645.03;4882504;29;20244;-81
2022/03/23 01:03:34;;;;;;;3.20;2.90;;;;;;;18.62;41.43;98669.69;4888014;29;20264;-81
2022/03/23 01:06:01;;;;;;;3.73;3.37;;;;;;;18.53;41.38;98655.56;4926775;29;20758;-81
2022/03/23 01:08:27;;;;;;;3.80;3.50;;;;;;;18.41;41.84;98631.94;4888292;29;20255;-82
2022/03/23 01:10:54;;;;;;;3.83;3.53;;;;;;;18.54;41.40;98654.78;4909359;29;20300;-81
2022/03/23 01:13:21;;;;;;;4.00;3.27;;;;;;;18.67;41.47;98675.06;4909209;29;20237;-81
2022/03/23 01:15:48;;;;;;;6.57;3.60;;;;;;;18.51;41.53;98654.59;4897145;29;20319;-81
2022/03/23 01:18:15;;;;;;;3.57;3.27;;;;;;;18.55;41.68;98651.44;4897834;29;20296;-81
2022/03/23 01:20:41;;;;;;;3.33;3.03;;;;;;;18.60;41.32;98650.94;4897705;29;20295;-81
2022/03/23 01:23:09;;;;;;;4.17;3.57;;;;;;;18.45;41.53;98626.25;4897237;29;20209;-81
2022/03/23 01:25:36;;;;;;;3.97;3.57;;;;;;;18.55;41.72;98638.69;4881764;29;20711;-81
2022/03/23 01:28:03;;;;;;;5.80;4.30;;;;;;;18.44;41.40;98627.03;4925871;29;20212;-87
2022/03/23 01:30:30;;;;;;;4.00;3.60;;;;;;;18.69;41.72;98663.31;4970588;29;20259;-87
2022/03/23 01:32:57;;;;;;;4.33;3.77;;;;;;;18.21;41.50;98578.16;4952339;29;20227;-87
2022/03/23 01:35:23;;;;;;;3.60;3.27;;;;;;;17.54;41.25;98458.00;4958894;28;20220;-87
2022/03/23 01:37:50;;;;;;;4.40;3.50;;;;;;;17.27;41.72;98412.25;4949825;29;20240;-87
2022/03/23 01:40:17;;;;;;;3.60;3.30;;;;;;;17.47;41.68;98460.94;4946641;29;20201;-88
2022/03/23 01:42:43;;;;;;;4.17;3.77;;;;;;;18.43;41.39;98625.25;4915387;29;20620;-88
2022/03/23 01:45:10;;;;;;;4.03;3.60;;;;;;;18.05;41.39;98552.63;4940139;29;20257;-87
2022/03/23 01:47:37;;;;;;;4.00;3.60;;;;;;;18.69;41.65;98661.66;4943083;29;20181;-88
2022/03/23 01:50:04;;;;;;;4.37;3.97;;;;;;;17.13;41.75;98390.22;4946527;29;20213;-87
2022/03/23 01:52:32;;;;;;;3.60;3.30;;;;;;;18.33;41.24;98597.50;4913825;29;20264;-81
2022/03/23 01:55:01;;;;;;;3.83;3.43;;;;;;;18.49;41.59;98623.06;4897461;29;20224;-82
2022/03/23 01:57:27;;;;;;;4.00;3.70;;;;;;;18.70;41.26;98654.88;4897427;29;20228;-82
2022/03/23 01:59:54;;;;;;;4.33;3.93;;;;;;;18.66;41.32;98655.50;4911363;29;20295;-81
2022/03/23 02:02:21;;;;;;;3.70;3.40;;;;;;;18.55;41.61;98628.53;4897580;29;20773;-82
2022/03/23 02:04:47;;;;;;;4.43;4.03;;;;;;;18.60;41.52;98650.94;4910294;29;20267;-82
2022/03/23 02:07:14;;;;;;;3.90;3.40;;;;;;;18.76;41.55;98667.97;4928479;29;20685;-82
2022/03/23 02:09:41;;;;;;;4.40;4.00;;;;;;;18.66;41.38;98645.31;4912657;29;20299;-82
2022/03/23 02:12:08;;;;;;;4.40;3.83;;;;;;;18.43;41.28;98607.44;4897288;29;20304;-82
2022/03/23 02:14:36;;;;;;;4.03;3.63;;;;;;;18.55;41.32;98624.31;4896948;29;20224;-81
2022/03/23 02:17:02;;;;;;;4.10;3.60;;;;;;;18.75;41.06;98658.56;4896603;29;20308;-81
2022/03/23 02:19:29;;;;;;;4.40;3.60;;;;;;;18.50;40.95;98609.56;4912606;29;20208;-82
2022/03/23 02:21:56;;;;;;;4.40;3.83;;;;;;;18.79;41.13;98661.38;4896626;29;20228;-82
2022/03/23 02:24:27;;;;;;;4.20;3.80;;;;;;;18.57;41.34;98617.66;4899445;29;20639;-82
2022/03/23 02:26:54;;;;;;;3.70;3.30;;;;;;;18.00;41.52;98517.53;4891482;29;20228;-89
2022/03/23 02:29:23;;;;;;;4.23;3.57;;;;;;;17.42;41.36;98425.88;4939646;29;20237;-87
2022/03/23 02:31:50;;;;;;;4.23;3.77;;;;;;;18.32;41.09;98572.84;4936768;29;20212;-88
2022/03/23 02:34:17;;;;;;;3.80;3.40;;;;;;;17.53;41.23;98435.91;4954309;29;20229;-88
2022/03/23 02:36:44;;;;;;;4.20;3.80;;;;;;;18.77;41.20;98655.31;4955753;29;20204;-89
2022/03/23 02:39:10;;;;;;;4.20;3.63;;;;;;;18.50;41.04;98612.13;4937179;29;20232;-87
2022/03/23 02:41:39;;;;;;;4.23;3.83;;;;;;;17.43;41.07;98422.53;4955022;29;20185;-87
2022/03/23 02:44:06;;;;;;;4.30;3.90;;;;;;;17.41;41.53;98424.97;4954298;29;20240;-89
2022/03/23 02:46:35;;;;;;;3.93;3.53;;;;;;;18.12;41.09;98547.09;4936256;29;20209;-88
2022/03/23 02:49:03;;;;;;;4.00;3.60;;;;;;;18.50;41.34;98602.78;4942282;29;20292;-82
2022/03/23 02:51:30;;;;;;;4.60;4.10;;;;;;;18.23;41.34;98562.13;4915232;29;20296;-81
2022/03/23 03:02:39;;;;;;;3.83;3.43;;;;;;;18.79;41.02;98666.47;4900466;29;20743;-82
2022/03/23 03:05:07;;;;;;;4.13;3.73;;;;;;;18.50;41.14;98609.56;4904080;29;20224;-81
2022/03/23 03:10:20;;;;;;;4.27;3.70;;;;;;;18.81;41.27;98664.03;4904423;29;20244;-81
2022/03/23 03:12:47;;;;;;;4.10;3.70;;;;;;;18.54;41.06;98617.47;4932386;29;20640;-81
2022/03/23 03:15:14;;;;;;;4.10;3.70;;;;;;;18.59;40.97;98617.75;4883629;29;20232;-81
2022/03/23 03:17:44;;;;;;;3.97;3.57;;;;;;;18.63;41.06;98624.75;4885222;29;20307;-81
2022/03/23 03:20:11;;;;;;;4.57;4.10;;;;;;;18.78;41.20;98652.00;4896355;29;20236;-82
2022/03/23 03:22:40;;;;;;;4.60;4.03;;;;;;;18.73;41.43;98643.19;4896933;29;20220;-81
2022/03/23 03:25:08;;;;;;;6.47;3.80;;;;;;;18.43;41.37;98598.16;4906233;29;20264;-81
2022/03/23 03:27:37;;;;;;;3.97;3.57;;;;;;;18.60;40.95;98622.03;4919286;29;20301;-88
2022/03/23 03:30:08;;;;;;;4.80;3.90;;;;;;;17.25;41.36;98396.03;4952687;29;20208;-87
2022/03/23 03:32:35;;;;;;;4.67;3.83;;;;;;;18.16;41.39;98540.53;4951005;29;20249;-87
2022/03/23 03:35:02;;;;;;;3.90;3.47;;;;;;;18.80;41.22;98658.03;4933897;29;20232;-87
2022/03/23 03:37:28;;;;;;;4.30;3.90;;;;;;;18.75;41.26;98650.94;4935951;29;20209;-87
2022/03/23 03:39:55;;;;;;;4.40;3.90;;;;;;;17.32;41.30;98413.41;4952439;29;20237;-88
2022/03/23 03:42:21;;;;;;;4.50;4.10;;;;;;;18.71;41.15;98652.41;4951120;29;20193;-87
2022/03/23 03:44:50;;;;;;;5.13;4.03;;;;;;;17.48;41.10;98441.50;4951230;29;20229;-88
2022/03/23 03:47:18;;;;;;;5.10;3.63;;;;;;;17.73;41.24;98472.66;4950432;29;20208;-88
2022/03/23 03:49:44;;;;;;;4.30;3.90;;;;;;;18.71;41.32;98656.66;4949680;29;20228;-88
2022/03/23 03:52:11;;;;;;;4.83;4.33;;;;;;;17.43;41.07;98443.78;4949358;29;20209;-87
2022/03/23 03:54:38;;;;;;;4.73;4.23;;;;;;;18.79;41.22;98670.69;4931377;29;20225;-88
2022/03/23 03:57:04;;;;;;;3.83;3.53;;;;;;;18.27;41.39;98586.94;4946058;29;20232;-81
2022/03/23 03:59:31;;;;;;;4.77;3.87;;;;;;;18.72;41.47;98666.03;4898956;29;20288;-81
2022/03/23 04:01:58;;;;;;;4.27;3.70;;;;;;;18.67;41.19;98655.59;4914112;29;20213;-81
2022/03/23 04:04:24;;;;;;;4.80;4.30;;;;;;;18.57;41.44;98639.69;4883115;29;20224;-81
2022/03/23 04:06:51;;;;;;;4.30;3.90;;;;;;;18.48;41.26;98628.97;4914484;29;20288;-81
2022/03/23 04:09:18;;;;;;;4.47;4.07;;;;;;;18.65;40.69;98653.75;4914433;29;20292;-80
2022/03/23 04:11:44;;;;;;;4.23;3.87;;;;;;;18.25;41.48;98586.88;4929589;29;20293;-81
2022/03/23 04:14:15;;;;;;;4.00;3.53;;;;;;;18.43;40.93;98610.00;4901152;29;20223;-81
2022/03/23 04:16:42;;;;;;;4.20;3.80;;;;;;;18.68;41.19;98657.31;4898917;29;20311;-81
2022/03/23 04:19:09;;;;;;;4.47;4.07;;;;;;;18.67;41.16;98655.59;4905467;29;20208;-81
2022/03/23 04:21:35;;;;;;;4.00;3.60;;;;;;;18.77;41.00;98674.84;4910556;29;20216;-81
2022/03/23 04:24:02;;;;;;;4.20;3.80;;;;;;;18.72;41.33;98666.94;4898345;29;20304;-81
2022/03/23 04:26:29;;;;;;;4.10;3.70;;;;;;;18.85;41.10;98684.66;4882575;29;20244;-81
2022/03/23 04:28:55;;;;;;;3.73;3.43;;;;;;;18.57;41.15;98632.03;4931371;29;20296;-81
2022/03/23 04:31:22;;;;;;;3.80;3.50;;;;;;;18.77;41.21;98667.19;4895238;29;20233;-81
2022/03/23 04:33:48;;;;;;;4.13;3.50;;;;;;;18.63;41.30;98643.47;4901829;29;20236;-81
2022/03/23 04:36:15;;;;;;;4.27;3.80;;;;;;;18.78;41.29;98668.94;4898140;29;20236;-81
2022/03/23 04:38:41;;;;;;;4.47;3.90;;;;;;;18.77;41.36;98665.50;4897317;29;20315;-81
2022/03/23 04:41:08;;;;;;;4.37;3.97;;;;;;;18.80;40.95;98678.41;4895292;29;20215;-80
2022/03/23 04:43:36;;;;;;;3.80;3.40;;;;;;;18.61;41.10;98644.16;4927255;29;20322;-81
2022/03/23 04:46:03;;;;;;;3.90;3.60;;;;;;;18.63;41.00;98647.69;4897380;29;20236;-81
2022/03/23 04:48:30;;;;;;;3.43;3.13;;;;;;;18.41;41.10;98615.00;4884165;29;20209;-80
2022/03/23 04:50:57;;;;;;;4.47;4.07;;;;;;;18.90;41.10;98701.09;4910208;29;20632;-80
2022/03/23 04:53:24;;;;;;;4.00;3.47;;;;;;;18.91;41.13;98699.41;4884136;29;20297;-80
2022/03/23 04:55:51;;;;;;;4.00;3.57;;;;;;;18.77;41.17;98677.38;4927991;29;20240;-80
2022/03/23 04:58:17;;;;;;;4.27;3.87;;;;;;;18.74;40.94;98683.16;4891561;29;20229;-80
2022/03/23 05:00:44;;;;;;;4.17;3.77;;;;;;;18.74;40.63;98677.19;4903715;29;20244;-81
2022/03/23 05:03:13;;;;;;;3.70;3.40;;;;;;;18.79;40.87;98689.41;4890453;29;20208;-80
2022/03/23 05:05:40;;;;;;;4.73;4.13;;;;;;;18.92;41.01;98707.13;4898197;29;20276;-80
2022/03/23 05:08:07;;;;;;;4.17;3.77;;;;;;;18.77;41.05;98679.94;4929861;29;20232;-80
2022/03/23 05:10:33;;;;;;;4.40;4.00;;;;;;;18.51;40.89;98639.31;4897703;29;20217;-82
2022/03/23 05:13:00;;;;;;;4.40;4.00;;;;;;;18.77;41.00;98687.56;4897660;29;20687;-81
2022/03/23 05:15:27;;;;;;;4.20;3.80;;;;;;;18.75;40.83;98684.94;4881842;29;20738;-80
2022/03/23 05:17:53;;;;;;;4.20;3.80;;;;;;;18.73;40.87;98680.50;4900764;29;20324;-81
2022/03/23 05:20:20;;;;;;;4.40;4.00;;;;;;;18.77;40.72;98685.03;4894100;29;20677;-81
2022/03/23 05:22:46;;;;;;;4.30;3.90;;;;;;;18.94;40.96;98720.84;4894495;29;20308;-80
2022/03/23 05:25:13;;;;;;;4.43;4.03;;;;;;;18.67;40.70;98675.06;4921950;29;20237;-80
2022/03/23 05:27:40;;;;;;;4.20;3.80;;;;;;;18.72;40.75;98688.94;4898501;29;20225;-80
2022/03/23 05:30:08;;;;;;;4.77;4.20;;;;;;;18.67;40.85;98677.59;4910466;29;20257;-80
2022/03/23 05:32:35;;;;;;;4.97;4.10;;;;;;;18.95;40.90;98737.03;4905998;29;20316;-80
2022/03/23 05:35:02;;;;;;;5.43;4.47;;;;;;;18.39;41.06;98638.59;4905571;29;20699;-81
2022/03/23 05:37:28;;;;;;;4.63;4.13;;;;;;;18.85;40.82;98724.53;4895004;29;20766;-82
2022/03/23 05:39:55;;;;;;;4.37;3.97;;;;;;;18.75;41.12;98700.22;4898179;29;20236;-81
2022/03/23 05:42:22;;;;;;;4.33;3.93;;;;;;;18.79;40.96;98717.41;4897942;29;20237;-80
2022/03/23 05:44:48;;;;;;;4.10;3.70;;;;;;;18.85;40.89;98727.97;4880964;29;20323;-81
2022/03/23 05:47:15;;;;;;;3.80;3.50;;;;;;;18.75;40.98;98712.06;4932244;29;20283;-81
2022/03/23 05:49:41;;;;;;;4.37;3.97;;;;;;;18.69;40.84;98701.50;4898341;29;20213;-81
2022/03/23 05:52:08;;;;;;;4.70;4.20;;;;;;;18.70;40.90;98703.25;4881700;29;20284;-81
2022/03/23 05:54:34;;;;;;;5.13;4.63;;;;;;;18.82;40.79;98726.88;4898021;29;20609;-80
2022/03/23 05:57:02;;;;;;;4.73;4.33;;;;;;;18.58;40.82;98687.25;4897002;29;20236;-81
2022/03/23 05:59:30;;;;;;;4.43;4.03;;;;;;;18.88;41.12;98737.44;4911555;29;20209;-80
2022/03/23 06:02:00;;;;;;;4.20;3.80;;;;;;;18.70;40.91;98709.22;4916875;29;20284;-81
2022/03/23 06:04:27;;;;;;;4.33;3.93;;;;;;;18.71;40.83;98716.06;4899590;29;20288;-81
2022/03/23 06:06:53;;;;;;;5.20;4.07;;;;;;;18.66;41.01;98704.75;4887070;29;20947;-81
2022/03/23 06:09:20;;;;;;;4.10;3.70;;;;;;;18.62;41.13;98707.03;4889339;29;20237;-81
2022/03/23 06:11:47;;;;;;;4.30;3.90;;;;;;;18.80;41.17;98733.59;4898674;29;20240;-80
2022/03/23 06:14:13;;;;;;;5.00;4.50;;;;;;;18.66;41.19;98708.97;4886459;29;20252;-81
2022/03/23 06:16:40;;;;;;;5.43;4.73;;;;;;;18.61;40.79;98708.69;4888586;29;20597;-80
2022/03/23 06:19:09;;;;;;;4.83;4.23;;;;;;;18.55;41.33;98694.72;4907823;29;20340;-81
2022/03/23 06:21:36;;;;;;;5.37;4.20;;;;;;;18.62;41.09;98707.03;4888944;29;20237;-81
2022/03/23 06:24:02;;;;;;;5.47;4.73;;;;;;;18.57;41.20;98705.88;4889911;29;20348;-81
2022/03/23 06:26:29;;;;;;;4.80;4.37;;;;;;;18.66;41.13;98722.59;4900726;29;20205;-81
2022/03/23 06:28:56;;;;;;;4.60;4.20;;;;;;;18.73;41.32;98741.63;4901137;29;20579;-81
2022/03/23 06:31:22;;;;;;;4.77;4.37;;;;;;;18.65;40.96;98722.50;4899889;29;20224;-82
2022/03/23 06:33:49;;;;;;;4.77;4.10;;;;;;;18.77;40.92;98752.09;4899906;29;20225;-80
2022/03/23 06:36:16;;;;;;;4.17;3.83;;;;;;;18.50;40.95;98709.72;4910299;29;20256;-81
2022/03/23 06:38:42;;;;;;;4.60;4.20;;;;;;;18.77;41.21;98756.31;4916171;29;20275;-81
2022/03/23 06:41:09;;;;;;;4.70;4.30;;;;;;;18.67;41.30;98736.19;4900456;29;20205;-81
2022/03/23 06:43:36;;;;;;;4.80;4.40;;;;;;;18.41;41.20;98696.44;4902715;29;20303;-81
2022/03/23 06:46:03;;;;;;;4.97;4.47;;;;;;;18.54;41.05;98713.31;4885423;29;20685;-81
2022/03/23 06:48:29;;;;;;;5.47;4.50;;;;;;;18.60;40.97;98729.84;4900516;29;20608;-80
2022/03/23 06:50:56;;;;;;;4.57;4.17;;;;;;;18.55;41.12;98720.16;4885176;29;20205;-80
2022/03/23 06:53:23;;;;;;;5.00;4.47;;;;;;;18.52;41.10;98707.25;4886181;29;20293;-82
2022/03/23 06:55:50;;;;;;;5.13;4.30;;;;;;;18.53;40.86;98714.97;4886918;29;20304;-81
2022/03/23 06:58:16;;;;;;;5.03;4.40;;;;;;;18.54;41.62;98726.94;4883105;29;20253;-81
2022/03/23 07:00:43;;;;;;;6.33;4.30;;;;;;;18.64;41.07;98748.72;4893871;29;20709;-81
2022/03/23 07:03:10;;;;;;;7.30;4.53;;;;;;;18.53;41.46;98722.63;4887552;29;20675;-81
2022/03/23 07:05:36;;;;;;;8.07;4.80;;;;;;;18.42;41.05;98708.41;4899832;29;20304;-80
2022/03/23 07:10:53;;;;;;;5.63;4.43;;;;;;;18.77;41.10;98774.16;4910595;29;20320;-81
2022/03/23 07:13:20;;;;;;;5.10;4.37;;;;;;;18.68;41.50;98760.88;4908473;29;20229;-81
2022/03/23 07:15:47;;;;;;;5.37;4.47;;;;;;;18.69;40.94;98757.53;4885073;29;20280;-81
2022/03/23 07:18:14;;;;;;;6.47;4.57;;;;;;;18.57;41.02;98744.06;4904545;29;20252;-80
2022/03/23 07:20:40;;;;;;;7.60;4.37;;;;;;;18.21;40.98;98674.00;4904749;29;20237;-80
2022/03/23 07:23:07;;;;;;;6.77;4.40;;;;;;;18.61;41.64;98746.00;4912968;29;20212;-81
2022/03/23 07:25:33;;;;;;;6.47;4.57;;;;;;;18.56;40.95;98737.22;4889718;29;20283;-80
2022/03/23 07:28:02;;;;;;;7.73;4.27;;;;;;;18.54;41.02;98733.69;4899582;29;20750;-80
2022/03/23 07:30:29;;;;;;;7.10;4.70;;;;;;;18.55;41.18;98732.91;4886808;29;20236;-80
2022/03/23 07:32:56;;;;;;;4.67;3.80;;;;;;;18.50;41.22;98730.06;4881373;29;20648;-80
2022/03/23 07:35:23;;;;;;;5.47;4.50;;;;;;;18.68;41.01;98761.72;4887960;29;20225;-80
2022/03/23 07:37:49;;;;;;;4.50;4.10;;;;;;;18.59;41.21;98739.94;4919292;29;20312;-80
2022/03/23 07:40:16;;;;;;;5.07;4.57;;;;;;;18.64;41.29;98749.63;4879629;29;20730;-80
2022/03/23 07:42:42;;;;;;;4.50;4.10;;;;;;;18.82;41.16;98780.38;4908766;29;20292;-80
2022/03/23 07:45:11;;;;;;;5.53;4.23;;;;;;;18.75;41.10;98774.06;4895007;29;20257;-79
2022/03/23 07:47:43;;;;;;;5.00;4.50;;;;;;;18.69;41.25;98760.06;4876379;29;20205;-80
2022/03/23 07:50:10;;;;;;;4.67;4.27;;;;;;;18.57;40.99;98738.97;4882962;29;20291;-80
2022/03/23 07:52:37;;;;;;;5.23;4.73;;;;;;;18.60;41.13;98747.69;4892801;29;20234;-80
2022/03/23 07:55:04;;;;;;;8.13;6.93;;;;;;;18.74;38.41;98771.44;4897880;29;20220;-80
2022/03/23 07:57:30;;;;;;;12.40;7.17;;;;;;;18.67;38.67;98757.44;4897387;29;20288;-80
2022/03/23 07:59:57;;;;;;;12.33;7.20;;;;;;;18.68;38.67;98759.19;4886710;29;20618;-80
2022/03/23 08:02:24;;;;;;;8.40;7.47;;;;;;;18.73;38.95;98767.09;4902093;29;20232;-80
2022/03/23 08:04:51;;;;;;;6.83;6.13;;;;;;;18.57;39.23;98742.41;4917492;29;20301;-80
2022/03/23 08:07:18;;;;;;;9.10;6.53;;;;;;;18.80;39.39;98782.84;4886737;29;20201;-80
2022/03/23 08:09:45;;;;;;;7.90;6.67;;;;;;;18.68;39.75;98768.50;4885404;29;20734;-80
2022/03/23 08:12:12;;;;;;;7.07;6.37;;;;;;;18.68;39.51;98764.28;4901415;29;20612;-80
2022/03/23 08:14:38;;;;;;;7.17;6.10;;;;;;;18.68;39.90;98769.38;4884344;29;20232;-80
2022/03/23 08:17:05;;;;;;;6.83;6.13;;;;;;;18.54;39.92;98741.34;4900953;29;20671;-80
2022/03/23 08:19:32;;;;;;;6.87;5.97;;;;;;;18.71;40.04;98777.19;4892249;29;20737;-80
2022/03/23 08:21:58;;;;;;;6.63;5.93;;;;;;;18.76;40.20;98786.00;4896864;29;20292;-80
2022/03/23 08:24:25;;;;;;;6.40;5.80;;;;;;;18.48;40.43;98734.22;4905463;29;20265;-81
2022/03/23 08:26:53;;;;;;;5.90;5.30;;;;;;;18.61;40.48;98758.72;4883931;29;20248;-81
2022/03/23 08:29:20;;;;;;;6.17;5.57;;;;;;;18.60;40.48;98754.44;4896751;29;20209;-81
2022/03/23 08:31:47;;;;;;;5.50;5.00;;;;;;;18.70;40.78;98775.44;4896299;29;20378;-81
2022/03/23 08:34:13;;;;;;;6.10;5.50;;;;;;;18.75;40.50;98789.34;4890068;29;20900;-81
2022/03/23 08:36:40;;;;;;;6.20;5.60;;;;;;;18.70;40.48;98782.19;4912974;29;20755;-81
2022/03/23 08:39:06;;;;;;;6.10;5.00;;;;;;;18.62;40.94;98765.59;4906470;29;20310;-81
2022/03/23 08:41:34;;;;;;;6.93;5.70;;;;;;;18.58;40.58;98766.19;4863841;29;20590;-81
2022/03/23 08:44:00;;;;;;;6.67;5.57;;;;;;;18.59;40.62;98762.88;4906650;29;20677;-81
2022/03/23 08:46:27;;;;;;;7.00;5.03;;;;;;;18.45;40.86;98743.31;4912466;29;20662;-81
2022/03/23 08:48:54;;;;;;;5.80;5.20;;;;;;;18.50;40.66;98758.06;4904916;29;20590;-81
2022/03/23 08:51:21;;;;;;;7.23;5.17;;;;;;;18.57;40.38;98770.41;4912053;29;20236;-81
2022/03/23 08:53:47;;;;;;;6.90;5.70;;;;;;;18.51;40.41;98754.78;4896149;29;20671;-81
2022/03/23 08:56:14;;;;;;;5.83;5.23;;;;;;;18.62;40.52;98770.69;4893611;29;20202;-81
2022/03/23 08:58:47;;;;;;;5.50;4.87;;;;;;;18.58;40.80;98759.44;4905927;29;20726;-81
2022/03/23 09:01:17;;;;;;;5.70;5.20;;;;;;;18.58;40.57;98761.09;4892652;29;20210;-81
2022/03/23 09:03:44;;;;;;;6.57;5.17;;;;;;;18.53;40.80;98760.81;4883778;29;20232;-81
2022/03/23 09:06:11;;;;;;;6.07;5.17;;;;;;;18.61;41.12;98771.44;4884944;29;20208;-81
2022/03/23 09:08:38;;;;;;;5.73;5.13;;;;;;;18.46;40.88;98740.88;4899659;29;20620;-81
2022/03/23 09:11:05;;;;;;;5.53;5.03;;;;;;;18.59;40.80;98771.34;4886869;29;20245;-81
2022/03/23 09:13:31;;;;;;;6.50;5.17;;;;;;;18.51;40.97;98752.22;4902630;29;20206;-81
2022/03/23 09:15:58;;;;;;;8.33;4.63;;;;;;;18.06;41.02;98673.91;4894001;29;20679;-81
2022/03/23 09:18:26;;;;;;;5.60;4.97;;;;;;;18.50;40.96;98752.13;4877840;29;20252;-81
2022/03/23 09:20:53;;;;;;;5.47;4.60;;;;;;;18.50;41.09;98752.13;4905176;29;20593;-81
2022/03/23 09:23:20;;;;;;;5.87;4.70;;;;;;;18.58;41.21;98768.72;4880617;29;20205;-81
2022/03/23 09:25:48;;;;;;;5.47;4.93;;;;;;;18.50;41.08;98757.22;4868629;29;20206;-81
2022/03/23 09:28:15;;;;;;;7.37;4.73;;;;;;;18.53;41.00;98752.31;4898957;29;20318;-81
2022/03/23 09:30:42;;;;;;;7.27;4.60;;;;;;;18.62;40.85;98768.16;4882991;29;20261;-81
2022/03/23 09:33:09;;;;;;;5.47;4.97;;;;;;;18.51;41.11;98749.69;4892564;29;20200;-81
2022/03/23 09:35:35;;;;;;;5.33;4.67;;;;;;;18.58;41.07;98756.88;4889835;29;20257;-81
2022/03/23 09:38:03;;;;;;;5.63;4.77;;;;;;;18.34;41.00;98716.31;4912192;29;20284;-81
2022/03/23 09:40:31;;;;;;;5.27;4.77;;;;;;;18.59;40.79;98756.09;4898774;29;20685;-81
2022/03/23 09:43:08;;;;;;;5.20;4.57;;;;;;;18.54;40.83;98756.59;4878865;29;20205;-82
2022/03/23 09:48:11;;;;;;;4.60;4.20;;;;;;;18.68;41.22;98778.69;4888251;29;20259;-82
2022/03/23 09:50:40;;;;;;;5.57;4.80;;;;;;;18.69;40.68;98777.91;4898128;29;20665;-82
2022/03/23 09:53:07;;;;;;;4.97;4.33;;;;;;;18.49;41.07;98738.50;4915467;29;20635;-82
2022/03/23 09:55:34;;;;;;;4.93;4.43;;;;;;;18.77;41.13;98779.25;4898285;29;20697;-83
2022/03/23 09:58:02;;;;;;;4.83;4.13;;;;;;;18.57;40.83;98738.97;4893671;29;20735;-82
2022/03/23 10:00:37;;;;;;;4.70;4.20;;;;;;;18.52;41.14;98730.16;4882277;29;20288;-83
2022/03/23 10:03:07;;;;;;;5.00;4.50;;;;;;;18.80;40.99;98775.19;4896108;29;20200;-83
2022/03/23 10:06:01;;;;;;;5.07;4.57;;;;;;;18.79;41.00;98772.56;4901647;29;20312;-82
2022/03/23 10:09:06;;;;;;;6.50;4.60;;;;;;;18.81;41.09;98773.53;4935633;29;20186;-89
2022/03/23 10:12:09;;;;;;;5.57;4.20;;;;;;;18.82;40.85;98772.72;4946554;29;20189;-90
2022/03/23 10:15:23;;;;;;;4.57;4.17;;;;;;;18.05;40.86;98633.13;4951167;29;20200;-90
2022/03/23 10:18:28;;;;;;;4.40;4.00;;;;;;;16.85;40.79;98448.63;4926800;29;20197;-91
2022/03/23 10:20:55;;;;;;;4.80;4.40;;;;;;;18.37;40.78;98680.84;4950707;29;20225;-89
2022/03/23 10:23:21;;;;;;;4.90;4.50;;;;;;;17.89;40.96;98598.25;4951320;29;20678;-89
2022/03/23 10:25:49;;;;;;;4.90;4.40;;;;;;;17.63;40.82;98551.72;4952982;29;20196;-89
2022/03/23 10:28:16;;;;;;;5.33;4.63;;;;;;;18.70;40.82;98733.81;4931893;29;20177;-83
2022/03/23 10:30:43;;;;;;;4.90;4.20;;;;;;;18.82;40.89;98747.25;4908531;29;20288;-83
2022/03/23 10:33:20;;;;;;;5.70;4.00;;;;;;;18.63;40.82;98708.78;4895644;29;20489;-84
2022/03/23 10:35:47;;;;;;;5.40;4.83;;;;;;;18.65;41.14;98713.16;4876878;29;20240;-84
2022/03/23 10:38:21;;;;;;;4.87;4.20;;;;;;;18.66;40.97;98712.41;4877623;29;20237;-84
2022/03/23 10:40:49;;;;;;;4.77;4.13;;;;;;;18.66;40.76;98709.84;4880684;29;20639;-84
2022/03/23 10:43:19;;;;;;;4.33;3.83;;;;;;;18.84;40.74;98738.94;4878702;29;20584;-83
2022/03/23 10:45:47;;;;;;;4.43;3.80;;;;;;;18.65;40.81;98699.59;4916633;29;20295;-83
2022/03/23 10:48:16;;;;;;;4.47;4.07;;;;;;;18.66;40.86;98696.22;4885900;29;20270;-83
2022/03/23 10:50:54;;;;;;;4.63;4.23;;;;;;;18.63;40.81;98693.50;4884018;29;20816;-86
2022/03/23 10:53:43;;;;;;;4.20;3.80;;;;;;;18.75;40.64;98699.31;4894049;29;20197;-90
2022/03/23 10:56:10;;;;;;;4.70;4.20;;;;;;;18.64;40.59;98687.63;4897900;29;20181;-90
2022/03/23 10:58:40;;;;;;;4.90;4.50;;;;;;;18.38;40.68;98655.53;4912759;29;20272;-90
2022/03/23 11:01:07;;;;;;;4.57;4.10;;;;;;;17.74;40.72;98515.97;4910202;29;20209;-90
2022/03/23 11:03:39;;;;;;;4.07;3.67;;;;;;;17.37;40.76;98473.88;4905057;29;20237;-91
2022/03/23 11:06:07;;;;;;;4.63;4.23;;;;;;;16.99;40.72;98401.22;4947338;29;20197;-90
2022/03/23 11:08:34;;;;;;;4.20;3.80;;;;;;;17.04;40.82;98428.63;4932861;29;20213;-88
2022/03/23 11:16:52;;;;;;;4.30;3.90;;;;;;;18.56;41.01;98633.69;4898648;29;20281;-85
2022/03/23 11:19:24;;;;;;;5.13;4.33;;;;;;;18.60;40.88;98655.13;4916648;29;20266;-84
2022/03/23 11:22:12;;;;;;;4.07;3.67;;;;;;;18.90;40.88;98700.22;4902875;29;20661;-84
2022/03/23 11:24:46;;;;;;;4.53;3.83;;;;;;;18.73;40.88;98662.69;4921201;29;20792;-82
2022/03/23 11:27:18;;;;;;;4.90;4.10;;;;;;;18.76;40.96;98667.97;4884499;29;20736;-84
2022/03/23 11:29:46;;;;;;;4.33;3.93;;;;;;;18.70;41.09;98663.41;4902231;29;20593;-83
2022/03/23 11:32:19;;;;;;;4.30;3.90;;;;;;;18.76;41.12;98668.84;4901385;29;20236;-82
2022/03/23 11:34:48;;;;;;;4.93;4.43;;;;;;;18.66;41.00;98643.66;4902300;29;20636;-84
2022/03/23 11:37:16;;;;;;;4.60;4.10;;;;;;;18.80;40.62;98664.81;4887115;29;20205;-84
2022/03/23 11:39:44;;;;;;;4.13;3.77;;;;;;;18.81;40.84;98671.66;4902990;29;20217;-83
2022/03/23 11:42:11;;;;;;;4.83;4.03;;;;;;;18.68;40.94;98641.19;4899120;29;20308;-82
2022/03/23 11:44:38;;;;;;;6.07;4.40;;;;;;;18.77;41.23;98652.75;4907938;29;20256;-82
2022/03/23 11:47:08;;;;;;;5.33;4.07;;;;;;;18.67;40.95;98634.31;4894647;29;20212;-83
2022/03/23 11:49:52;;;;;;;6.47;4.20;;;;;;;18.65;40.78;98635.91;4887525;29;20702;-84
2022/03/23 11:52:34;;;;;;;6.10;4.63;;;;;;;18.94;40.71;98676.66;4899865;29;20291;-82
2022/03/23 11:55:37;;;;;;;6.17;4.67;;;;;;;18.70;40.94;98625.19;4897975;29;20272;-83
2022/03/23 11:58:16;;;;;;;8.77;5.20;;;;;;;18.71;40.98;98632.03;4884337;29;20280;-82
2022/03/23 12:00:51;;;;;;;9.47;5.40;;;;;;;18.79;40.81;98646.09;4886034;29;20228;-84
2022/03/23 12:03:57;;;;;;;8.37;5.20;;;;;;;18.92;40.72;98657.88;4899953;29;20685;-82